Time;durP1;ratioP1;P1;durP2;ratioP2;P2;SDS_P1;SDS_P2;PMS_P1;PMS_P2;Temp;Humidity;BMP_temperature;BMP_pressure;BME280_temperature;BME280_humidity;BME280_pressure;Samples;Min_cycle;Max_cycle;Signal;HPM_P1;HPM_P2
2021/06/18 00:01:21;;;;;;;4.28;3.88;;;24.20;75.10;;;;;;5034738;28;20067;-67
2021/06/18 00:03:48;;;;;;;5.57;3.60;;;24.20;75.20;;;;;;5032905;28;20440;-67
2021/06/18 00:06:13;;;;;;;5.07;4.53;;;24.20;75.30;;;;;;5033382;28;20496;-67
2021/06/18 00:08:39;;;;;;;4.05;3.65;;;24.20;75.50;;;;;;5032337;28;20142;-67
2021/06/18 00:11:05;;;;;;;4.63;3.83;;;24.10;75.50;;;;;;5031697;28;20017;-67
2021/06/18 00:13:31;;;;;;;4.15;3.72;;;24.10;75.70;;;;;;5035180;28;20116;-67
2021/06/18 00:15:56;;;;;;;4.70;3.80;;;24.10;75.60;;;;;;5034416;28;20143;-67
2021/06/18 00:18:22;;;;;;;4.30;3.67;;;24.10;75.80;;;;;;5036116;28;20116;-67
2021/06/18 00:20:47;;;;;;;4.10;3.50;;;24.10;75.90;;;;;;5036172;28;20036;-67
2021/06/18 00:23:13;;;;;;;3.85;3.40;;;24.00;76.00;;;;;;5036750;28;20032;-67
2021/06/18 00:25:39;;;;;;;4.03;3.63;;;24.00;76.10;;;;;;5040145;28;20032;-67
2021/06/18 00:28:05;;;;;;;3.90;3.22;;;24.00;76.20;;;;;;5034007;28;20100;-67
2021/06/18 00:30:30;;;;;;;4.05;3.30;;;23.90;76.30;;;;;;5036909;28;20101;-67
2021/06/18 00:32:56;;;;;;;3.92;3.40;;;23.90;76.40;;;;;;5035572;28;20061;-67
2021/06/18 00:35:21;;;;;;;3.97;3.53;;;23.80;76.50;;;;;;5035424;28;20075;-67
2021/06/18 00:37:47;;;;;;;4.20;3.80;;;23.80;76.70;;;;;;5037569;28;20059;-67
2021/06/18 00:40:13;;;;;;;7.00;4.90;;;23.70;76.90;;;;;;5037124;28;20426;-66
2021/06/18 00:42:38;;;;;;;5.60;4.63;;;23.70;77.10;;;;;;5038638;28;20025;-66
2021/06/18 00:45:05;;;;;;;4.53;4.13;;;23.60;77.30;;;;;;5036328;28;20489;-66
2021/06/18 00:47:32;;;;;;;5.43;4.90;;;23.60;77.50;;;;;;5036919;28;20049;-67
2021/06/18 00:49:57;;;;;;;5.03;4.32;;;23.60;77.60;;;;;;5035361;28;20020;-67
2021/06/18 00:52:23;;;;;;;4.47;4.05;;;23.60;78.30;;;;;;5034031;28;20022;-67
2021/06/18 00:54:49;;;;;;;5.53;4.82;;;23.60;77.70;;;;;;5037057;28;20014;-66
2021/06/18 00:57:17;;;;;;;4.60;4.20;;;23.60;77.80;;;;;;5037175;28;20018;-66
2021/06/18 00:59:43;;;;;;;6.85;4.55;;;23.60;77.90;;;;;;5038341;28;20433;-67
2021/06/18 01:02:08;;;;;;;5.38;4.88;;;23.60;78.00;;;;;;5034408;28;20056;-67
2021/06/18 01:04:36;;;;;;;7.10;5.25;;;23.50;78.00;;;;;;5036669;28;20029;-67
2021/06/18 01:07:03;;;;;;;6.82;6.15;;;23.50;78.30;;;;;;5035100;28;20072;-67
2021/06/18 01:09:37;;;;;;;7.15;6.30;;;23.50;78.70;;;;;;5033433;28;20032;-67
2021/06/18 01:12:07;;;;;;;8.50;7.32;;;23.50;79.00;;;;;;5034262;28;20469;-66
2021/06/18 01:14:41;;;;;;;9.18;7.25;;;23.50;79.50;;;;;;5035421;28;20063;-66
2021/06/18 01:17:19;;;;;;;9.68;8.68;;;23.40;79.70;;;;;;5038427;28;20029;-67
2021/06/18 01:19:53;;;;;;;7.07;6.38;;;23.30;80.30;;;;;;5036641;28;20424;-66
2021/06/18 01:22:21;;;;;;;10.40;8.90;;;23.30;80.50;;;;;;5035003;28;20087;-66
2021/06/18 01:24:55;;;;;;;11.45;9.20;;;23.20;80.90;;;;;;5033836;28;20029;-66
2021/06/18 01:27:38;;;;;;;8.32;7.25;;;23.20;81.20;;;;;;5034173;28;20025;-66
2021/06/18 01:30:16;;;;;;;7.93;7.13;;;23.20;81.20;;;;;;5033113;28;20021;-66
2021/06/18 01:33:02;;;;;;;7.72;6.82;;;23.10;81.30;;;;;;5035532;28;20030;-66
2021/06/18 01:35:35;;;;;;;7.97;6.63;;;23.00;81.50;;;;;;5034456;28;20049;-66
2021/06/18 01:38:03;;;;;;;7.40;6.53;;;23.00;81.80;;;;;;5033935;28;20025;-67
2021/06/18 01:40:29;;;;;;;6.13;5.45;;;23.00;81.90;;;;;;5035906;28;20026;-66
2021/06/18 01:42:57;;;;;;;8.07;7.10;;;23.00;81.80;;;;;;5034251;28;20052;-66
2021/06/18 01:45:26;;;;;;;8.02;6.07;;;23.00;81.70;;;;;;5033960;28;20021;-66
2021/06/18 01:47:54;;;;;;;9.27;6.78;;;23.00;81.70;;;;;;5035951;28;20009;-66
2021/06/18 01:50:22;;;;;;;8.23;7.45;;;23.10;81.60;;;;;;5033041;28;20037;-67
2021/06/18 01:52:55;;;;;;;9.30;7.57;;;23.10;81.70;;;;;;5034464;28;20101;-66
2021/06/18 01:55:23;;;;;;;7.90;7.25;;;23.10;81.90;;;;;;5033399;28;20022;-66
2021/06/18 01:57:53;;;;;;;9.03;7.73;;;23.00;81.90;;;;;;5036673;28;20021;-66
2021/06/18 02:00:19;;;;;;;;;;;23.00;82.00;;;;;;5065643;28;20025;-66
2021/06/18 02:02:46;;;;;;;8.70;7.82;;;22.90;82.00;;;;;;5035901;28;19916;-66
2021/06/18 02:05:13;;;;;;;8.10;7.28;;;22.90;82.50;;;;;;5034219;28;20018;-66
2021/06/18 02:07:40;;;;;;;8.48;7.60;;;22.90;82.40;;;;;;5032690;28;20095;-66
2021/06/18 02:10:09;;;;;;;7.57;6.88;;;22.90;82.40;;;;;;5033875;28;20461;-66
2021/06/18 02:12:36;;;;;;;8.63;7.70;;;22.90;82.50;;;;;;5033332;28;20052;-66
2021/06/18 02:15:03;;;;;;;8.98;8.07;;;22.90;82.40;;;;;;5037659;28;20381;-66
2021/06/18 02:17:31;;;;;;;9.45;8.45;;;22.90;82.40;;;;;;5036769;28;20042;-66
2021/06/18 02:19:58;;;;;;;11.88;8.40;;;22.90;82.40;;;;;;5035872;28;20043;-66
2021/06/18 02:22:25;;;;;;;7.97;7.20;;;23.00;82.50;;;;;;5033784;28;20458;-66
2021/06/18 02:24:52;;;;;;;8.20;7.35;;;22.90;82.50;;;;;;5034145;28;20021;-66
2021/06/18 02:27:18;;;;;;;8.32;7.47;;;23.00;82.60;;;;;;5033060;28;20018;-66
2021/06/18 02:29:44;;;;;;;8.32;7.55;;;22.90;82.60;;;;;;5034228;28;20030;-66
2021/06/18 02:32:12;;;;;;;8.50;7.70;;;22.90;82.60;;;;;;5034713;28;20095;-66
2021/06/18 02:34:38;;;;;;;8.17;7.37;;;22.90;82.70;;;;;;5033203;28;20029;-66
2021/06/18 02:37:05;;;;;;;8.45;7.65;;;22.80;82.70;;;;;;5031611;28;20031;-66
2021/06/18 02:39:31;;;;;;;8.63;7.75;;;22.80;82.90;;;;;;5035102;28;20021;-66
2021/06/18 02:41:56;;;;;;;8.88;7.57;;;22.70;83.00;;;;;;5034518;28;20033;-66
2021/06/18 02:44:22;;;;;;;10.30;9.23;;;22.70;83.20;;;;;;5036261;28;20029;-67
2021/06/18 02:47:11;;;;;;;8.55;7.75;;;22.70;83.40;;;;;;5032592;28;20024;-66
2021/06/18 02:49:53;;;;;;;11.27;10.18;;;22.70;83.40;;;;;;5034215;28;20022;-66
2021/06/18 02:52:29;;;;;;;10.73;9.63;;;22.70;83.70;;;;;;5031821;28;20026;-66
2021/06/18 02:55:10;;;;;;;10.43;9.07;;;22.60;83.90;;;;;;5032507;28;20450;-66
2021/06/18 02:57:47;;;;;;;10.02;9.05;;;22.60;84.00;;;;;;5035655;28;20025;-66
2021/06/18 03:00:13;;;;;;;10.13;9.13;;;22.60;84.20;;;;;;5034391;28;20036;-66
2021/06/18 03:02:45;;;;;;;9.55;8.63;;;22.50;84.30;;;;;;5034138;28;20485;-66
2021/06/18 03:05:14;;;;;;;9.23;8.40;;;22.50;84.30;;;;;;5038911;28;20021;-66
2021/06/18 03:07:49;;;;;;;10.50;9.48;;;22.50;84.40;;;;;;5033176;28;20018;-66
2021/06/18 03:10:16;;;;;;;9.63;8.57;;;22.50;84.50;;;;;;5032567;28;20034;-66
2021/06/18 03:12:44;;;;;;;9.43;8.55;;;22.40;84.60;;;;;;5032227;28;20029;-66
2021/06/18 03:15:10;;;;;;;9.13;8.07;;;22.40;84.70;;;;;;5036889;28;20018;-66
2021/06/18 03:17:40;;;;;;;10.85;9.75;;;22.40;84.80;;;;;;5036409;28;20045;-66
2021/06/18 03:20:07;;;;;;;;;;;22.40;84.70;;;;;;5034424;28;20017;-66
2021/06/18 03:22:34;;;;;;;9.18;8.23;;;22.50;84.70;;;;;;5033183;28;19917;-66
2021/06/18 03:25:02;;;;;;;13.18;11.73;;;22.40;84.90;;;;;;5033557;28;20021;-66
2021/06/18 03:27:30;;;;;;;16.55;14.80;;;22.40;84.80;;;;;;5032257;28;20017;-66
2021/06/18 03:29:56;;;;;;;15.98;14.38;;;22.50;85.20;;;;;;5033582;28;20014;-66
2021/06/18 03:32:23;;;;;;;17.70;15.93;;;22.40;85.30;;;;;;5034177;28;20061;-66
2021/06/18 03:34:50;;;;;;;13.88;12.18;;;22.50;85.70;;;;;;5032488;28;20044;-66
2021/06/18 03:37:17;;;;;;;12.55;11.25;;;22.50;85.60;;;;;;5031164;28;20385;-66
2021/06/18 03:39:43;;;;;;;13.93;12.43;;;22.40;85.60;;;;;;5033346;28;20021;-66
2021/06/18 03:42:09;;;;;;;13.07;11.85;;;22.40;85.90;;;;;;5034198;28;20547;-66
2021/06/18 03:44:35;;;;;;;15.05;13.32;;;22.30;86.20;;;;;;5034544;28;20021;-66
2021/06/18 03:47:02;;;;;;;13.32;11.93;;;22.20;86.60;;;;;;5033465;28;20025;-66
2021/06/18 03:49:29;;;;;;;11.38;10.38;;;22.20;86.80;;;;;;5032922;28;20051;-66
2021/06/18 03:51:55;;;;;;;25.05;22.65;;;22.20;86.90;;;;;;5032239;28;20121;-66
2021/06/18 03:54:22;;;;;;;25.17;22.67;;;22.10;88.20;;;;;;5032998;28;20013;-66
2021/06/18 03:56:48;;;;;;;20.88;18.67;;;22.00;89.70;;;;;;5038204;28;20021;-66
2021/06/18 03:59:16;;;;;;;20.70;16.08;;;21.90;90.30;;;;;;5038277;28;20025;-67
2021/06/18 04:01:44;;;;;;;20.17;12.75;;;21.80;91.50;;;;;;5038736;28;20473;-69
2021/06/18 04:04:10;;;;;;;14.07;10.98;;;21.60;92.50;;;;;;5037011;28;20108;-68
2021/06/18 04:06:37;;;;;;;16.92;13.35;;;21.50;92.90;;;;;;5036236;28;20064;-68
2021/06/18 04:09:04;;;;;;;11.55;8.38;;;21.40;94.20;;;;;;5036230;28;20071;-68
2021/06/18 04:11:30;;;;;;;13.02;9.18;;;21.40;94.70;;;;;;5035823;28;20033;-68
2021/06/18 04:13:56;;;;;;;12.18;10.77;;;21.30;95.30;;;;;;5038073;28;20017;-69
2021/06/18 04:16:22;;;;;;;12.75;10.32;;;21.30;96.00;;;;;;5040026;28;20078;-69
2021/06/18 04:18:49;;;;;;;9.43;6.32;;;21.30;96.50;;;;;;5041235;28;20448;-68
2021/06/18 04:21:20;;;;;;;7.85;6.95;;;21.20;96.60;;;;;;5036435;28;20119;-68
2021/06/18 04:23:45;;;;;;;10.57;8.98;;;21.20;96.50;;;;;;5036119;28;20022;-68
2021/06/18 04:26:11;;;;;;;10.00;8.90;;;21.10;96.90;;;;;;5035697;28;20079;-68
2021/06/18 04:28:38;;;;;;;10.18;9.13;;;21.00;97.30;;;;;;5035522;28;20105;-68
2021/06/18 04:31:05;;;;;;;9.00;8.10;;;21.00;97.90;;;;;;5050225;28;20021;-68
2021/06/18 04:33:31;;;;;;;12.48;10.60;;;21.00;97.80;;;;;;5035877;28;20036;-67
2021/06/18 04:35:56;;;;;;;12.75;11.02;;;21.00;97.90;;;;;;5036082;28;20543;-67
2021/06/18 04:38:22;;;;;;;11.95;10.70;;;20.90;98.20;;;;;;5035066;28;20029;-67
2021/06/18 04:40:49;;;;;;;14.75;13.30;;;20.80;98.50;;;;;;5037073;28;20397;-68
2021/06/18 04:43:15;;;;;;;15.02;13.18;;;20.80;98.80;;;;;;5037008;28;20021;-68
2021/06/18 04:45:41;;;;;;;17.60;14.82;;;20.70;99.00;;;;;;5037194;28;20093;-68
2021/06/18 04:48:07;;;;;;;13.98;12.50;;;20.70;99.20;;;;;;5036839;28;20026;-67
2021/06/18 04:50:32;;;;;;;14.75;13.25;;;20.70;99.30;;;;;;5035419;28;20017;-67
2021/06/18 04:53:00;;;;;;;15.05;13.48;;;20.70;99.30;;;;;;5035792;28;20021;-67
2021/06/18 04:55:25;;;;;;;17.20;15.45;;;20.70;99.30;;;;;;5034704;28;20496;-67
2021/06/18 04:57:51;;;;;;;18.60;16.80;;;20.70;99.40;;;;;;5035564;28;20021;-68
2021/06/18 05:00:17;;;;;;;17.38;15.57;;;20.70;99.50;;;;;;5036628;28;20022;-68
2021/06/18 05:02:43;;;;;;;14.80;13.35;;;20.80;99.50;;;;;;5036922;28;20511;-68
2021/06/18 05:05:09;;;;;;;14.77;13.38;;;20.90;99.40;;;;;;5036069;28;20391;-68
2021/06/18 05:07:35;;;;;;;16.38;14.73;;;20.90;99.40;;;;;;5035292;28;20045;-68
2021/06/18 05:10:01;;;;;;;15.32;13.75;;;20.90;99.40;;;;;;5035671;28;20465;-68
2021/06/18 05:12:27;;;;;;;13.23;11.85;;;21.00;99.40;;;;;;5033156;28;20022;-68
2021/06/18 05:14:52;;;;;;;14.20;12.57;;;21.10;99.30;;;;;;5036579;28;20026;-68
2021/06/18 05:17:18;;;;;;;16.63;14.88;;;21.10;99.20;;;;;;5037159;28;20048;-68
2021/06/18 05:19:43;;;;;;;14.57;13.05;;;21.10;99.20;;;;;;5036967;28;20029;-68
2021/06/18 05:22:09;;;;;;;13.63;12.23;;;21.10;99.30;;;;;;5035771;28;20076;-69
2021/06/18 05:24:35;;;;;;;13.00;11.70;;;21.10;99.20;;;;;;5035132;28;20029;-68
2021/06/18 05:27:00;;;;;;;13.27;11.93;;;21.20;99.20;;;;;;5035112;28;20496;-68
2021/06/18 05:29:26;;;;;;;10.27;9.23;;;21.20;99.30;;;;;;5035663;28;20026;-69
2021/06/18 05:31:52;;;;;;;12.77;11.25;;;21.30;99.20;;;;;;5035187;28;20104;-68
2021/06/18 05:34:18;;;;;;;10.60;9.55;;;21.30;99.20;;;;;;5035919;28;20440;-68
2021/06/18 05:36:46;;;;;;;10.70;9.65;;;21.30;99.10;;;;;;5034090;28;20120;-68
2021/06/18 05:39:13;;;;;;;11.13;10.03;;;21.40;99.30;;;;;;5032629;28;20477;-68
2021/06/18 05:41:39;;;;;;;10.30;9.30;;;21.40;99.30;;;;;;5036167;28;20108;-68
2021/06/18 05:44:04;;;;;;;10.23;9.18;;;21.40;99.00;;;;;;5035957;28;20096;-68
2021/06/18 05:46:30;;;;;;;9.93;8.98;;;21.40;99.00;;;;;;5058031;28;20075;-67
2021/06/18 05:48:56;;;;;;;11.25;10.07;;;21.30;99.10;;;;;;5056680;28;20028;-67
2021/06/18 05:51:22;;;;;;;12.23;11.02;;;21.30;99.20;;;;;;5053929;28;20031;-67
2021/06/18 05:53:47;;;;;;;10.38;9.38;;;21.30;99.30;;;;;;5063907;28;20103;-67
2021/06/18 05:56:13;;;;;;;9.75;8.75;;;21.30;99.40;;;;;;5062404;28;20374;-68
2021/06/18 05:58:38;;;;;;;10.00;9.00;;;21.40;99.50;;;;;;5063069;28;20025;-67
2021/06/18 06:01:04;;;;;;;9.82;8.82;;;21.40;99.50;;;;;;5071884;28;20024;-67
2021/06/18 06:03:29;;;;;;;10.80;9.70;;;21.40;99.50;;;;;;5073800;28;20489;-67
2021/06/18 06:05:55;;;;;;;8.63;7.82;;;21.40;99.70;;;;;;5073772;28;20085;-67
2021/06/18 06:08:20;;;;;;;6.80;6.20;;;21.40;99.70;;;;;;5073655;28;20488;-68
2021/06/18 06:10:48;;;;;;;7.22;6.53;;;21.50;99.70;;;;;;5073784;28;20027;-68
2021/06/18 06:13:15;;;;;;;6.65;6.05;;;21.60;99.70;;;;;;5072853;28;20550;-68
2021/06/18 06:15:41;;;;;;;8.90;8.07;;;21.70;99.60;;;;;;5073099;28;20046;-68
2021/06/18 06:18:06;;;;;;;9.20;8.40;;;21.70;99.50;;;;;;5052950;28;20036;-68
2021/06/18 06:20:32;;;;;;;8.20;7.50;;;21.60;99.60;;;;;;5053273;28;20033;-68
2021/06/18 06:22:57;;;;;;;8.20;7.43;;;21.60;99.60;;;;;;5052846;28;20033;-68
2021/06/18 06:25:23;;;;;;;10.15;9.15;;;21.70;99.60;;;;;;5051770;28;20439;-68
2021/06/18 06:27:48;;;;;;;9.57;8.68;;;21.70;99.60;;;;;;5052892;28;20029;-68
2021/06/18 06:30:14;;;;;;;10.63;9.52;;;21.90;99.60;;;;;;5050708;28;20021;-68
2021/06/18 06:32:40;;;;;;;11.00;9.93;;;21.90;99.40;;;;;;5052679;28;20107;-68
2021/06/18 06:35:06;;;;;;;10.07;9.23;;;21.90;99.30;;;;;;5051719;28;20017;-68
2021/06/18 06:37:31;;;;;;;12.77;11.50;;;22.00;99.30;;;;;;5053128;28;20457;-68
2021/06/18 06:39:57;;;;;;;11.68;10.63;;;22.00;99.30;;;;;;5053173;28;20421;-68
2021/06/18 06:42:23;;;;;;;15.57;14.18;;;22.10;99.20;;;;;;5053622;28;20055;-68
2021/06/18 06:44:48;;;;;;;13.23;12.02;;;22.10;99.20;;;;;;5063910;28;20025;-68
2021/06/18 06:47:14;;;;;;;14.70;13.40;;;22.20;99.10;;;;;;5066568;28;20400;-68
2021/06/18 06:49:40;;;;;;;14.23;12.88;;;22.20;99.10;;;;;;5072554;28;20028;-68
2021/06/18 06:52:06;;;;;;;14.20;12.90;;;22.20;99.00;;;;;;5072423;28;20476;-68
2021/06/18 06:54:31;;;;;;;12.60;11.40;;;22.30;99.00;;;;;;5071679;28;20077;-68
2021/06/18 06:56:57;;;;;;;15.13;13.80;;;22.40;98.90;;;;;;5072976;28;20036;-68
2021/06/18 06:59:23;;;;;;;12.75;11.40;;;22.40;98.90;;;;;;5072968;28;20024;-68
2021/06/18 07:01:48;;;;;;;13.25;12.10;;;22.40;98.90;;;;;;5072897;28;20028;-68
2021/06/18 07:04:14;;;;;;;14.73;13.32;;;22.40;98.80;;;;;;5071746;28;20032;-68
2021/06/18 07:06:40;;;;;;;13.13;11.93;;;22.40;98.80;;;;;;5066133;28;20025;-68
2021/06/18 07:09:06;;;;;;;12.60;11.40;;;22.40;98.80;;;;;;5052977;28;20023;-68
2021/06/18 07:11:32;;;;;;;13.82;12.48;;;22.40;98.70;;;;;;5052765;28;20103;-68
2021/06/18 07:13:58;;;;;;;11.45;10.52;;;22.50;98.70;;;;;;5052736;28;20095;-68
2021/06/18 07:16:24;;;;;;;12.98;11.77;;;22.50;98.70;;;;;;5052310;28;20032;-67
2021/06/18 07:18:50;;;;;;;12.02;10.93;;;22.50;98.70;;;;;;5050978;28;20447;-68
2021/06/18 07:21:16;;;;;;;12.25;11.15;;;22.50;98.70;;;;;;5052633;28;20439;-68
2021/06/18 07:23:42;;;;;;;12.13;10.95;;;22.50;98.70;;;;;;5052794;28;20033;-68
2021/06/18 07:26:07;;;;;;;13.07;11.77;;;22.50;98.70;;;;;;5052619;28;20096;-68
2021/06/18 07:28:33;;;;;;;12.65;11.48;;;22.50;98.70;;;;;;5053118;28;20025;-68
2021/06/18 07:30:58;;;;;;;11.93;10.80;;;22.50;98.70;;;;;;5056774;28;20079;-68
2021/06/18 07:33:24;;;;;;;11.43;10.15;;;22.50;98.60;;;;;;5055549;28;20059;-68
2021/06/18 07:35:50;;;;;;;13.32;12.13;;;22.60;98.70;;;;;;5051667;28;20044;-68
2021/06/18 07:38:15;;;;;;;12.38;11.32;;;22.50;98.60;;;;;;5054873;28;20025;-68
2021/06/18 07:40:41;;;;;;;12.85;11.50;;;22.60;98.60;;;;;;5051300;28;20369;-67
2021/06/18 07:43:07;;;;;;;13.15;11.95;;;22.60;98.60;;;;;;5053453;28;20510;-67
2021/06/18 07:45:33;;;;;;;11.77;10.63;;;22.60;98.60;;;;;;5055423;28;20044;-67
2021/06/18 07:47:59;;;;;;;14.70;13.30;;;22.60;98.60;;;;;;5053703;28;20021;-67
2021/06/18 07:50:25;;;;;;;12.98;11.80;;;22.60;98.60;;;;;;5054943;28;20009;-68
2021/06/18 07:52:50;;;;;;;11.98;10.88;;;22.70;98.60;;;;;;5054210;28;20025;-68
2021/06/18 07:55:19;;;;;;;11.93;10.82;;;22.70;98.90;;;;;;5055566;28;20021;-68
2021/06/18 07:57:45;;;;;;;14.63;13.37;;;22.80;98.50;;;;;;5046778;28;20030;-68
2021/06/18 08:00:12;;;;;;;13.70;12.50;;;22.80;98.60;;;;;;5036737;28;20072;-68
2021/06/18 08:02:38;;;;;;;13.75;12.55;;;22.90;98.60;;;;;;5037047;28;20029;-68
2021/06/18 08:05:04;;;;;;;15.88;14.38;;;22.90;98.50;;;;;;5040644;28;20108;-68
2021/06/18 08:07:30;;;;;;;14.75;13.45;;;22.90;98.50;;;;;;5039433;28;20029;-68
2021/06/18 08:09:55;;;;;;;19.38;17.55;;;23.00;98.40;;;;;;5037192;28;20025;-68
2021/06/18 08:12:21;;;;;;;18.60;16.70;;;23.00;98.40;;;;;;5037018;28;20028;-68
2021/06/18 08:14:48;;;;;;;15.90;14.38;;;22.90;98.30;;;;;;5036571;28;20029;-68
2021/06/18 08:17:14;;;;;;;18.02;16.33;;;23.00;98.30;;;;;;5037547;28;20080;-68
2021/06/18 08:19:40;;;;;;;16.42;14.93;;;23.10;98.30;;;;;;5035300;28;20030;-68
2021/06/18 08:22:05;;;;;;;17.45;15.82;;;23.10;98.30;;;;;;5037759;28;20034;-68
2021/06/18 08:24:35;;;;;;;15.52;14.05;;;23.20;98.20;;;;;;5036748;28;20066;-68
2021/06/18 08:27:01;;;;;;;;;;;23.30;98.10;;;;;;5034245;28;20396;-68
2021/06/18 08:29:27;;;;;;;12.95;11.65;;;23.30;98.10;;;;;;5035472;28;19907;-68
2021/06/18 08:31:52;;;;;;;14.18;12.88;;;23.30;98.10;;;;;;5037589;28;20030;-68
2021/06/18 08:34:18;;;;;;;12.65;11.45;;;23.40;97.90;;;;;;5037246;28;20052;-68
2021/06/18 08:36:44;;;;;;;14.13;12.75;;;23.60;97.80;;;;;;5038722;28;20393;-68
2021/06/18 08:39:10;;;;;;;14.80;13.45;;;23.70;97.60;;;;;;5035743;28;20465;-68
2021/06/18 08:41:36;;;;;;;15.13;13.77;;;23.80;97.50;;;;;;5034579;28;20163;-68
2021/06/18 08:44:02;;;;;;;13.15;11.93;;;23.90;97.40;;;;;;5066578;28;20104;-69
2021/06/18 08:46:27;;;;;;;15.35;13.82;;;24.00;97.30;;;;;;5037208;28;20486;-68
2021/06/18 08:48:53;;;;;;;16.33;14.75;;;24.00;97.10;;;;;;5036806;28;20500;-69
2021/06/18 08:51:19;;;;;;;14.90;13.50;;;24.10;96.80;;;;;;5038113;28;20076;-69
2021/06/18 08:53:45;;;;;;;14.15;12.85;;;24.20;96.70;;;;;;5036017;28;20030;-69
2021/06/18 08:56:11;;;;;;;14.32;12.93;;;24.30;96.50;;;;;;5036080;28;20043;-69
2021/06/18 08:58:36;;;;;;;13.77;12.57;;;24.40;96.30;;;;;;5033542;28;20036;-68
2021/06/18 09:01:03;;;;;;;12.48;11.43;;;24.50;96.10;;;;;;5033498;28;20034;-69
2021/06/18 09:03:43;;;;;;;11.38;10.27;;;24.70;96.00;;;;;;5036745;28;20017;-69
2021/06/18 09:06:22;;;;;;;13.27;12.07;;;24.80;95.70;;;;;;5037439;28;20018;-69
2021/06/18 09:09:10;;;;;;;15.00;13.60;;;25.00;95.40;;;;;;5035806;28;20018;-69
2021/06/18 09:11:45;;;;;;;14.70;13.20;;;25.10;95.00;;;;;;5036411;28;20031;-69
2021/06/18 09:14:26;;;;;;;11.10;10.10;;;25.10;94.70;;;;;;5035088;28;20386;-69
2021/06/18 09:17:11;;;;;;;17.67;16.00;;;25.20;94.60;;;;;;5036175;28;20017;-69
2021/06/18 09:19:42;;;;;;;15.52;13.57;;;25.30;94.40;;;;;;5033852;28;20029;-69
2021/06/18 09:22:12;;;;;;;15.73;14.23;;;25.40;94.10;;;;;;5036290;28;20025;-69
2021/06/18 09:24:44;;;;;;;17.50;15.68;;;25.50;93.70;;;;;;5034439;28;20104;-69
2021/06/18 09:27:10;;;;;;;13.23;11.95;;;25.50;93.60;;;;;;5036264;28;20047;-69
2021/06/18 09:29:36;;;;;;;14.00;12.70;;;25.60;93.60;;;;;;5034583;28;20555;-69
2021/06/18 09:32:06;;;;;;;13.90;12.57;;;25.80;93.40;;;;;;5037747;28;20107;-69
2021/06/18 09:34:50;;;;;;;13.00;11.75;;;25.80;93.20;;;;;;5035405;28;20366;-69
2021/06/18 09:37:39;;;;;;;12.02;10.85;;;25.90;93.10;;;;;;5035839;28;20495;-69
2021/06/18 09:40:07;;;;;;;16.80;15.00;;;26.00;92.90;;;;;;5065033;28;20026;-69
2021/06/18 09:42:46;;;;;;;13.75;12.35;;;26.10;92.50;;;;;;5036711;28;20033;-69
2021/06/18 09:45:14;;;;;;;14.45;13.05;;;26.10;91.90;;;;;;5033810;28;20052;-69
2021/06/18 09:47:41;;;;;;;10.77;9.70;;;26.10;91.40;;;;;;5034997;28;20033;-69
2021/06/18 09:50:27;;;;;;;8.80;8.00;;;26.20;91.60;;;;;;5033601;28;20022;-70
2021/06/18 09:53:21;;;;;;;9.32;8.52;;;26.40;91.50;;;;;;5038135;28;20020;-69
2021/06/18 09:56:08;;;;;;;8.25;7.57;;;26.60;91.30;;;;;;5038323;28;20029;-69
2021/06/18 09:58:41;;;;;;;10.15;9.23;;;26.80;91.10;;;;;;5049262;28;20036;-69
2021/06/18 10:01:24;;;;;;;11.02;10.02;;;26.80;90.70;;;;;;5046037;28;20068;-69
2021/06/18 10:04:16;;;;;;;7.72;7.00;;;26.90;90.30;;;;;;5049978;28;20021;-69
2021/06/18 10:06:42;;;;;;;17.60;15.80;;;27.10;90.30;;;;;;5036391;28;20025;-70
2021/06/18 10:09:10;;;;;;;12.18;11.00;;;27.00;88.20;;;;;;5037092;28;20029;-70
2021/06/18 10:11:38;;;;;;;10.75;9.43;;;27.00;88.40;;;;;;5034398;28;20033;-69
2021/06/18 10:14:04;;;;;;;9.43;8.52;;;27.10;88.80;;;;;;5035045;28;20055;-70
2021/06/18 10:16:29;;;;;;;11.23;10.23;;;27.20;89.00;;;;;;5045949;28;20044;-69
2021/06/18 10:18:57;;;;;;;10.43;9.43;;;27.40;88.70;;;;;;5049802;28;20401;-69
2021/06/18 10:21:24;;;;;;;10.30;9.40;;;27.40;87.70;;;;;;5045588;28;20069;-70
2021/06/18 10:23:57;;;;;;;12.27;10.23;;;27.60;87.30;;;;;;5050013;28;20465;-69
2021/06/18 10:26:24;;;;;;;12.57;10.73;;;27.70;86.80;;;;;;5047376;28;20017;-69
2021/06/18 10:28:55;;;;;;;14.25;12.77;;;27.90;86.00;;;;;;5054441;28;20055;-69
2021/06/18 10:31:35;;;;;;;10.98;9.95;;;28.00;85.70;;;;;;5052665;28;20100;-69
2021/06/18 10:34:15;;;;;;;10.40;8.20;;;28.10;85.60;;;;;;5052311;28;20025;-70
2021/06/18 10:36:42;;;;;;;14.35;12.93;;;28.30;86.00;;;;;;5051370;28;20021;-70
2021/06/18 10:39:15;;;;;;;9.88;8.45;;;28.40;83.10;;;;;;5048306;28;20028;-70
2021/06/18 10:41:58;;;;;;;10.35;9.38;;;28.50;83.60;;;;;;5035346;28;20032;-70
2021/06/18 10:44:56;;;;;;;11.65;9.68;;;28.50;82.00;;;;;;5043189;28;20019;-70
2021/06/18 10:47:25;;;;;;;9.73;8.73;;;28.50;81.30;;;;;;5017437;28;20095;-70
2021/06/18 10:49:52;;;;;;;12.00;10.80;;;28.30;81.80;;;;;;5038887;28;20036;-70
2021/06/18 10:52:19;;;;;;;13.30;11.85;;;28.20;82.00;;;;;;5033084;28;20025;-70
2021/06/18 10:54:53;;;;;;;13.32;9.93;;;28.20;81.80;;;;;;5036597;28;20036;-70
2021/06/18 10:57:29;;;;;;;8.65;7.55;;;28.30;82.10;;;;;;5034746;28;20025;-70
2021/06/18 10:59:57;;;;;;;8.70;7.90;;;28.50;83.70;;;;;;5039366;28;20056;-70
2021/06/18 11:02:26;;;;;;;7.03;6.30;;;28.70;82.70;;;;;;5035905;28;20068;-70
2021/06/18 11:04:56;;;;;;;;;;;29.00;82.50;;;;;;5039922;28;20372;-70
2021/06/18 11:07:24;;;;;;;12.55;10.88;;;29.10;82.20;;;;;;5035461;28;20262;-70
2021/06/18 11:09:56;;;;;;;12.55;11.25;;;29.00;80.40;;;;;;5039077;28;20021;-71
2021/06/18 11:12:22;;;;;;;11.85;10.25;;;28.90;79.60;;;;;;5036392;28;20029;-70
2021/06/18 11:14:48;;;;;;;9.30;8.40;;;28.80;80.60;;;;;;5037616;28;20454;-71
2021/06/18 11:17:40;;;;;;;10.10;8.45;;;28.80;80.20;;;;;;5040205;28;20021;-71
2021/06/18 11:20:17;;;;;;;10.57;8.60;;;29.00;78.70;;;;;;5038970;28;20029;-71
2021/06/18 11:22:54;;;;;;;11.10;8.52;;;29.00;77.70;;;;;;5050008;28;20029;-71
2021/06/18 11:25:38;;;;;;;14.68;8.52;;;29.10;77.00;;;;;;5052469;28;20078;-71
2021/06/18 11:28:25;;;;;;;8.48;7.07;;;29.30;75.50;;;;;;5040158;28;20045;-71
2021/06/18 11:31:00;;;;;;;7.55;6.05;;;29.30;74.70;;;;;;5031381;28;20018;-71
2021/06/18 11:33:45;;;;;;;6.63;5.35;;;29.30;75.50;;;;;;5034191;28;20017;-71
2021/06/18 11:38:46;;;;;;;9.50;5.85;;;29.80;74.80;;;;;;5034690;28;20509;-71
2021/06/18 11:41:12;;;;;;;7.47;6.65;;;29.90;73.60;;;;;;5037381;28;20024;-71
2021/06/18 11:43:42;;;;;;;12.63;7.95;;;29.90;73.00;;;;;;5050919;28;20021;-71
2021/06/18 11:46:09;;;;;;;5.80;5.22;;;29.90;72.70;;;;;;5051933;28;20017;-71
2021/06/18 11:48:35;;;;;;;6.28;5.45;;;30.00;72.50;;;;;;5050858;28;20025;-71
2021/06/18 11:51:02;;;;;;;7.15;6.45;;;30.30;72.60;;;;;;5051370;28;20032;-72
2021/06/18 11:53:38;;;;;;;7.25;6.30;;;30.50;72.00;;;;;;5050767;28;20028;-72
2021/06/18 11:56:05;;;;;;;6.03;5.25;;;30.50;70.30;;;;;;5051926;28;20378;-72
2021/06/18 11:58:32;;;;;;;6.35;4.40;;;30.50;69.00;;;;;;5052017;28;20025;-72
2021/06/18 12:00:58;;;;;;;7.13;5.60;;;30.50;68.70;;;;;;5051590;28;20541;-72
2021/06/18 12:03:32;;;;;;;8.32;4.85;;;30.70;69.30;;;;;;5050834;28;20100;-72
2021/06/18 12:06:12;;;;;;;7.15;6.25;;;30.80;68.80;;;;;;5051674;28;20041;-72
2021/06/18 12:08:37;;;;;;;9.07;5.75;;;30.80;68.20;;;;;;5052044;28;20381;-72
2021/06/18 12:11:16;;;;;;;8.65;5.78;;;30.70;68.10;;;;;;5051299;28;20029;-72
2021/06/18 12:13:51;;;;;;;7.50;5.82;;;30.70;67.60;;;;;;5048446;28;20029;-71
2021/06/18 12:16:19;;;;;;;7.70;5.13;;;30.70;66.40;;;;;;5041850;28;20111;-72
2021/06/18 12:18:44;;;;;;;6.70;4.13;;;30.60;65.00;;;;;;5044159;28;20052;-71
2021/06/18 12:21:12;;;;;;;5.38;3.17;;;30.80;65.40;;;;;;5040250;28;20026;-72
2021/06/18 12:23:38;;;;;;;5.55;4.25;;;31.20;65.70;;;;;;5045315;28;20376;-72
2021/06/18 12:26:03;;;;;;;8.18;4.97;;;31.50;64.30;;;;;;5040877;28;20469;-72
2021/06/18 12:28:29;;;;;;;7.15;5.28;;;31.60;64.50;;;;;;5043196;28;20029;-72
2021/06/18 12:30:58;;;;;;;5.57;4.20;;;31.80;63.30;;;;;;5044832;28;20029;-71
2021/06/18 12:33:24;;;;;;;6.00;4.07;;;31.80;61.90;;;;;;5045598;28;20034;-72
2021/06/18 12:35:50;;;;;;;5.70;5.07;;;31.90;62.60;;;;;;5042823;28;20102;-72
2021/06/18 12:38:16;;;;;;;6.35;5.07;;;31.90;62.00;;;;;;5039215;28;20021;-72
2021/06/18 12:40:48;;;;;;;6.68;4.32;;;32.00;62.00;;;;;;5040341;28;20026;-72
2021/06/18 12:43:15;;;;;;;5.93;4.50;;;32.20;63.40;;;;;;5053319;28;20017;-72
2021/06/18 12:45:49;;;;;;;5.30;3.78;;;32.30;61.60;;;;;;5054926;28;20053;-72
2021/06/18 12:48:28;;;;;;;4.95;4.38;;;32.30;60.00;;;;;;5053559;28;20017;-73